createdAt,value
2018-07-07T00:01:13.215Z,7.07
2018-07-07T00:03:42.037Z,6.60
2018-07-07T00:06:14.424Z,6.20
2018-07-07T00:08:44.096Z,8.27
2018-07-07T00:11:16.195Z,6.50
2018-07-07T00:13:45.358Z,10.77
2018-07-07T00:16:18.743Z,6.30
2018-07-07T00:18:47.713Z,7.23
2018-07-07T00:21:20.500Z,6.07
2018-07-07T00:23:49.977Z,6.47
2018-07-07T00:26:25.845Z,6.20
2018-07-07T00:28:55.174Z,6.50
2018-07-07T00:31:24.531Z,7.03
2018-07-07T00:33:53.384Z,7.70
2018-07-07T00:36:30.965Z,6.70
2018-07-07T00:39:00.569Z,7.57
2018-07-07T00:41:29.722Z,7.10
2018-07-07T00:43:58.476Z,11.53
2018-07-07T00:46:31.966Z,8.27
2018-07-07T00:49:01.319Z,8.50
2018-07-07T00:51:37.426Z,7.07
2018-07-07T00:54:07.162Z,9.77
2018-07-07T00:56:37.314Z,7.70
2018-07-07T00:59:06.188Z,7.47
2018-07-07T01:01:42.461Z,7.97
2018-07-07T01:04:11.371Z,8.00
2018-07-07T01:06:44.600Z,8.87
2018-07-07T01:09:14.718Z,7.10
2018-07-07T01:11:45.950Z,9.10
2018-07-07T01:14:14.767Z,9.17
2018-07-07T01:16:47.782Z,7.80
2018-07-07T01:19:16.694Z,7.70
2018-07-07T01:21:53.157Z,7.27
2018-07-07T01:24:22.210Z,8.63
2018-07-07T01:26:55.342Z,7.47
2018-07-07T01:29:24.570Z,8.30
2018-07-07T01:31:55.637Z,10.93
2018-07-07T01:34:24.399Z,8.60
2018-07-07T01:36:59.659Z,11.57
2018-07-07T01:39:28.674Z,9.50
2018-07-07T01:42:01.664Z,8.20
2018-07-07T01:44:30.374Z,11.40
2018-07-07T01:47:07.207Z,8.37
2018-07-07T01:49:36.166Z,8.73
2018-07-07T01:52:08.470Z,8.70
2018-07-07T01:54:37.454Z,8.40
2018-07-07T01:57:10.176Z,8.23
2018-07-07T01:59:38.915Z,8.17
2018-07-07T02:02:12.668Z,9.43
2018-07-07T02:04:41.621Z,8.00
2018-07-07T02:07:18.188Z,9.00
2018-07-07T02:09:47.009Z,7.83
2018-07-07T02:12:17.731Z,9.07
2018-07-07T02:14:46.850Z,8.80
2018-07-07T02:17:20.088Z,8.17
2018-07-07T02:19:48.862Z,8.33
2018-07-07T02:22:25.367Z,8.00
2018-07-07T02:24:54.273Z,8.33
2018-07-07T02:27:25.003Z,9.43
2018-07-07T02:29:54.142Z,8.87
2018-07-07T02:32:30.254Z,9.90
2018-07-07T02:34:59.294Z,10.20
2018-07-07T02:37:32.458Z,10.47
2018-07-07T02:40:01.141Z,9.53
2018-07-07T02:42:32.671Z,9.50
2018-07-07T02:45:01.383Z,8.77
2018-07-07T02:47:37.799Z,9.00
2018-07-07T02:50:07.554Z,8.57
2018-07-07T02:52:37.538Z,8.80
2018-07-07T02:55:06.303Z,10.40
2018-07-07T02:57:39.515Z,13.10
2018-07-07T03:00:08.708Z,8.10
2018-07-07T03:02:46.108Z,9.07
2018-07-07T03:05:15.121Z,11.03
2018-07-07T03:07:47.101Z,9.83
2018-07-07T03:10:15.853Z,9.57
2018-07-07T03:12:48.458Z,7.93
2018-07-07T03:15:20.179Z,10.33
2018-07-07T03:17:52.257Z,8.50
2018-07-07T03:20:21.213Z,8.37
2018-07-07T03:22:53.818Z,8.63
2018-07-07T03:25:22.537Z,10.60
2018-07-07T03:27:56.512Z,9.47
2018-07-07T03:30:25.261Z,8.50
2018-07-07T03:33:01.475Z,8.97
2018-07-07T03:35:30.202Z,8.70
2018-07-07T03:38:02.051Z,8.27
2018-07-07T03:40:30.804Z,8.60
2018-07-07T03:43:07.123Z,7.10
2018-07-07T03:45:35.924Z,8.23
2018-07-07T03:48:08.459Z,7.37
2018-07-07T03:50:37.706Z,7.80
2018-07-07T03:53:14.132Z,8.57
2018-07-07T03:55:42.838Z,9.47
2018-07-07T03:58:14.297Z,10.10
2018-07-07T04:00:43.519Z,8.30
2018-07-07T04:03:19.659Z,8.13
2018-07-07T04:05:48.496Z,8.93
2018-07-07T04:08:19.059Z,7.40
2018-07-07T04:10:47.897Z,10.33
2018-07-07T04:13:20.166Z,8.37
2018-07-07T04:15:48.927Z,7.83
2018-07-07T04:18:31.937Z,8.50
2018-07-07T04:21:02.170Z,8.40
2018-07-07T04:23:31.962Z,8.47
2018-07-07T04:26:01.157Z,7.60
2018-07-07T04:28:30.771Z,8.90
2018-07-07T04:31:00.036Z,9.13
2018-07-07T04:33:32.889Z,7.87
2018-07-07T04:36:02.146Z,8.50
2018-07-07T04:38:34.357Z,8.77
2018-07-07T04:41:03.708Z,7.80
2018-07-07T04:43:39.980Z,10.30
2018-07-07T04:46:09.051Z,10.83
2018-07-07T04:48:37.785Z,9.57
2018-07-07T04:51:07.106Z,10.10
2018-07-07T04:53:42.483Z,10.17
2018-07-07T04:56:11.296Z,9.20
2018-07-07T04:58:43.775Z,9.40
2018-07-07T05:01:12.953Z,8.30
2018-07-07T05:03:49.423Z,11.43
2018-07-07T05:06:18.401Z,10.43
2018-07-07T05:08:50.697Z,8.70
2018-07-07T05:11:19.500Z,10.27
2018-07-07T05:13:53.081Z,8.00
2018-07-07T05:16:23.194Z,8.13
2018-07-07T05:18:55.812Z,11.80
2018-07-07T05:21:25.271Z,7.87
2018-07-07T05:23:57.627Z,6.83
2018-07-07T05:26:26.754Z,9.33
2018-07-07T05:28:59.971Z,7.37
2018-07-07T05:31:28.741Z,8.20
2018-07-07T05:34:02.872Z,11.03
2018-07-07T05:36:32.111Z,5.83
2018-07-07T05:39:06.347Z,8.50
2018-07-07T05:41:35.104Z,7.27
2018-07-07T05:44:09.727Z,8.73
2018-07-07T05:46:38.493Z,12.93
2018-07-07T05:49:13.198Z,9.73
2018-07-07T05:51:42.008Z,12.07
2018-07-07T05:54:18.155Z,11.50
2018-07-07T05:56:47.700Z,12.13
2018-07-07T05:59:17.790Z,12.70
2018-07-07T06:01:47.529Z,11.47
2018-07-07T06:04:20.146Z,8.57
2018-07-07T06:06:48.959Z,11.30
2018-07-07T06:09:25.990Z,11.67
2018-07-07T06:11:54.807Z,9.70
2018-07-07T06:14:24.952Z,14.57
2018-07-07T06:16:53.898Z,11.30
2018-07-07T06:19:29.117Z,15.43
2018-07-07T06:21:57.988Z,10.03
2018-07-07T06:24:29.999Z,10.03
2018-07-07T06:27:00.093Z,8.83
2018-07-07T06:29:34.261Z,10.10
2018-07-07T06:32:03.104Z,14.00
2018-07-07T06:34:36.359Z,9.37
2018-07-07T06:37:05.053Z,9.67
2018-07-07T06:39:38.182Z,8.23
2018-07-07T06:42:07.688Z,7.60
2018-07-07T06:44:37.665Z,7.30
2018-07-07T06:47:06.845Z,11.00
2018-07-07T06:49:45.895Z,10.37
2018-07-07T06:52:15.276Z,11.93
2018-07-07T06:54:46.674Z,11.90
2018-07-07T06:57:16.182Z,9.87
2018-07-07T06:59:47.277Z,10.87
2018-07-07T07:02:16.138Z,11.37
2018-07-07T07:04:53.309Z,10.00
2018-07-07T07:07:21.656Z,8.30
2018-07-07T07:09:51.593Z,9.90
2018-07-07T07:12:20.589Z,9.53
2018-07-07T07:14:54.964Z,8.63
2018-07-07T07:17:24.024Z,9.13
2018-07-07T07:19:58.108Z,7.83
2018-07-07T07:22:27.389Z,7.57
2018-07-07T07:25:03.411Z,7.20
2018-07-07T07:27:32.708Z,10.63
2018-07-07T07:30:05.507Z,6.40
2018-07-07T07:32:34.574Z,6.87
2018-07-07T07:35:07.356Z,7.03
2018-07-07T07:37:36.422Z,8.27
2018-07-07T07:40:11.073Z,9.10
2018-07-07T07:42:40.179Z,5.97
2018-07-07T07:45:16.280Z,5.43
2018-07-07T07:47:45.054Z,9.40
2018-07-07T07:50:17.602Z,6.63
2018-07-07T07:52:47.736Z,4.87
2018-07-07T07:55:18.442Z,5.30
2018-07-07T07:57:47.516Z,4.30
2018-07-07T08:00:19.956Z,5.87
2018-07-07T08:02:48.740Z,6.27
2018-07-07T08:05:23.849Z,3.07
2018-07-07T08:07:52.767Z,3.40
2018-07-07T08:10:25.095Z,5.13
2018-07-07T08:12:54.129Z,6.67
2018-07-07T08:15:30.815Z,4.27
2018-07-07T08:18:03.705Z,4.83
2018-07-07T08:20:32.792Z,4.97
2018-07-07T08:23:01.746Z,5.77
2018-07-07T08:25:32.296Z,4.87
2018-07-07T08:28:01.430Z,6.83
2018-07-07T08:30:37.746Z,6.10
2018-07-07T08:33:06.184Z,4.10
2018-07-07T08:35:36.761Z,5.13
2018-07-07T08:38:06.358Z,2.63
2018-07-07T08:40:43.346Z,3.83
2018-07-07T08:43:15.290Z,6.00
2018-07-07T08:45:45.574Z,5.70
2018-07-07T08:48:16.999Z,6.10
2018-07-07T08:50:48.357Z,5.93
2018-07-07T08:53:17.260Z,3.57
2018-07-07T08:55:49.577Z,4.63
2018-07-07T08:58:18.897Z,3.63
2018-07-07T09:00:52.721Z,4.87
2018-07-07T09:03:21.558Z,3.77
2018-07-07T09:05:52.777Z,3.73
2018-07-07T09:08:21.614Z,3.60
2018-07-07T09:10:57.443Z,3.83
2018-07-07T09:13:27.442Z,4.70
2018-07-07T09:15:58.295Z,2.37
2018-07-07T09:18:27.085Z,2.90
2018-07-07T09:21:01.286Z,4.53
2018-07-07T09:23:30.547Z,3.40
2018-07-07T09:32:58.485Z,2.97
2018-07-07T09:35:28.241Z,4.07
2018-07-07T09:37:57.532Z,4.80
2018-07-07T09:40:27.775Z,2.83
2018-07-07T09:42:57.166Z,2.50
2018-07-07T09:45:26.235Z,2.43
2018-07-07T09:47:56.558Z,4.10
2018-07-07T09:50:26.162Z,3.90
2018-07-07T09:52:55.260Z,2.93
2018-07-07T09:55:24.286Z,2.23
2018-07-07T09:57:54.271Z,4.20
2018-07-07T10:00:28.214Z,4.13
2018-07-07T10:02:57.292Z,2.63
2018-07-07T10:05:26.771Z,2.23
2018-07-07T10:07:55.692Z,4.30
2018-07-07T10:10:26.241Z,5.50
2018-07-07T10:12:57.747Z,2.43
2018-07-07T10:15:30.190Z,1.97
2018-07-07T10:17:59.473Z,3.13
2018-07-07T10:20:32.223Z,3.50
2018-07-07T10:23:02.431Z,3.30
2018-07-07T10:25:35.217Z,5.17
2018-07-07T10:28:04.663Z,2.87
2018-07-07T10:30:37.785Z,2.90
2018-07-07T10:33:07.190Z,2.40
2018-07-07T10:35:39.186Z,5.87
2018-07-07T10:38:08.231Z,2.27
2018-07-07T10:40:41.464Z,1.97
2018-07-07T10:43:12.348Z,2.60
2018-07-07T10:45:46.667Z,3.50
2018-07-07T10:48:18.702Z,3.20
2018-07-07T10:50:49.091Z,2.40
2018-07-07T10:53:19.007Z,1.67
2018-07-07T10:55:49.611Z,2.70
2018-07-07T10:58:20.242Z,2.30
2018-07-07T11:00:52.945Z,6.27
2018-07-07T11:03:21.788Z,2.53
2018-07-07T11:05:58.010Z,1.93
2018-07-07T11:08:27.187Z,1.50
2018-07-07T11:10:59.381Z,0.90
2018-07-07T11:13:29.782Z,1.50
2018-07-07T11:16:03.525Z,2.43
2018-07-07T11:18:33.253Z,1.40
2018-07-07T11:21:04.170Z,4.50
2018-07-07T11:23:33.553Z,2.13
2018-07-07T11:26:10.201Z,1.93
2018-07-07T11:28:39.341Z,1.10
2018-07-07T11:31:12.563Z,2.70
2018-07-07T11:33:42.353Z,1.03
2018-07-07T11:36:12.886Z,2.97
2018-07-07T11:38:42.738Z,1.73
2018-07-07T11:41:21.627Z,1.50
2018-07-07T11:43:55.102Z,2.73
2018-07-07T11:46:26.023Z,2.43
2018-07-07T11:48:55.851Z,1.70
2018-07-07T11:51:24.697Z,2.40
2018-07-07T11:53:56.804Z,3.73
2018-07-07T11:56:27.780Z,2.77
2018-07-07T11:58:57.603Z,1.90
2018-07-07T12:01:27.554Z,2.30
2018-07-07T12:03:56.773Z,2.17
2018-07-07T12:06:27.295Z,1.97
2018-07-07T12:08:56.495Z,2.03
2018-07-07T12:11:33.287Z,1.17
2018-07-07T12:14:02.159Z,1.70
2018-07-07T12:16:32.536Z,2.77
2018-07-07T12:19:01.963Z,1.37
2018-07-07T12:21:35.528Z,0.70
2018-07-07T12:24:05.658Z,2.67
2018-07-07T12:26:36.681Z,3.87
2018-07-07T12:29:05.739Z,1.73
2018-07-07T12:31:42.649Z,0.77
2018-07-07T12:34:11.662Z,1.43
2018-07-07T12:36:43.806Z,1.57
2018-07-07T12:39:15.267Z,1.20
2018-07-07T12:41:45.111Z,2.60
2018-07-07T12:44:14.223Z,2.97
2018-07-07T12:46:50.863Z,2.50
2018-07-07T12:49:20.382Z,1.00
2018-07-07T12:51:50.063Z,0.70
2018-07-07T12:54:20.394Z,1.23
2018-07-07T12:56:53.162Z,2.47
2018-07-07T12:59:23.827Z,0.60
2018-07-07T13:01:56.825Z,0.80
2018-07-07T13:04:25.837Z,2.37
2018-07-07T13:07:09.098Z,1.03
2018-07-07T13:09:39.610Z,1.63
2018-07-07T13:12:08.710Z,1.90
2018-07-07T13:14:39.555Z,2.13
2018-07-07T13:17:09.128Z,1.00
2018-07-07T13:19:38.273Z,2.70
2018-07-07T13:22:08.707Z,1.10
2018-07-07T13:24:38.576Z,2.13
2018-07-07T13:27:11.704Z,0.83
2018-07-07T13:29:45.574Z,1.07
2018-07-07T13:32:16.592Z,0.90
2018-07-07T13:34:45.701Z,0.73
2018-07-07T13:37:17.605Z,1.10
2018-07-07T13:39:47.103Z,2.30
2018-07-07T13:42:19.874Z,2.13
2018-07-07T13:44:49.575Z,2.17
2018-07-07T13:47:21.986Z,1.53
2018-07-07T13:49:51.114Z,0.80
2018-07-07T13:52:23.647Z,2.73
2018-07-07T13:54:54.735Z,1.00
2018-07-07T13:57:26.020Z,1.67
2018-07-07T13:59:55.338Z,1.13
2018-07-07T14:02:28.181Z,2.77
2018-07-07T14:04:57.968Z,0.93
2018-07-07T14:07:35.139Z,1.40
2018-07-07T14:10:05.149Z,2.40
2018-07-07T14:12:35.182Z,1.60
2018-07-07T14:15:04.745Z,1.13
2018-07-07T14:17:36.534Z,1.57
2018-07-07T14:20:06.534Z,2.50
2018-07-07T14:22:40.508Z,1.83
2018-07-07T14:25:10.486Z,1.27
2018-07-07T14:27:40.575Z,1.53
2018-07-07T14:30:11.731Z,1.17
2018-07-07T14:32:43.800Z,1.27
2018-07-07T14:35:12.992Z,1.20
2018-07-07T14:37:47.135Z,1.37
2018-07-07T14:40:16.649Z,1.90
2018-07-07T14:42:52.142Z,1.00
2018-07-07T14:45:29.284Z,1.40
2018-07-07T14:47:59.594Z,3.00
2018-07-07T14:50:29.860Z,2.57
2018-07-07T14:52:59.108Z,1.40
2018-07-07T14:55:29.281Z,1.13
2018-07-07T14:57:59.173Z,1.30
2018-07-07T15:00:29.088Z,5.60
2018-07-07T15:02:59.118Z,1.90
2018-07-07T15:05:28.466Z,2.70
2018-07-07T15:08:04.711Z,2.70
2018-07-07T15:10:33.553Z,3.80
2018-07-07T15:13:06.028Z,2.60
2018-07-07T15:18:12.829Z,2.20
2018-07-07T15:20:41.997Z,1.87
2018-07-07T15:23:12.371Z,1.30
2018-07-07T15:25:41.330Z,2.67
2018-07-07T15:28:14.581Z,1.50
2018-07-07T15:30:43.737Z,1.90
2018-07-07T15:33:16.558Z,1.33
2018-07-07T15:35:45.713Z,1.13
2018-07-07T15:38:22.720Z,1.83
2018-07-07T15:40:51.815Z,1.20
2018-07-07T15:43:20.989Z,1.73
2018-07-07T15:45:50.739Z,2.93
2018-07-07T15:48:23.735Z,1.40
2018-07-07T15:50:53.161Z,1.67
2018-07-07T15:53:32.095Z,2.47
2018-07-07T15:56:01.205Z,4.33
2018-07-07T15:58:30.030Z,2.90
2018-07-07T16:00:59.106Z,3.43
2018-07-07T16:03:33.670Z,1.53
2018-07-07T16:06:03.722Z,1.23
2018-07-07T16:08:34.985Z,2.77
2018-07-07T16:11:04.368Z,1.17
2018-07-07T16:13:35.721Z,1.70
2018-07-07T16:16:05.452Z,1.70
2018-07-07T16:18:37.178Z,1.73
2018-07-07T16:21:06.430Z,2.73
2018-07-07T16:23:39.866Z,2.73
2018-07-07T16:26:08.904Z,2.17
2018-07-07T16:28:45.288Z,3.70
2018-07-07T16:31:14.648Z,2.10
2018-07-07T16:33:44.906Z,5.77
2018-07-07T16:36:14.042Z,2.37
2018-07-07T16:38:49.280Z,1.53
2018-07-07T16:41:18.225Z,1.97
2018-07-07T16:43:51.485Z,2.53
2018-07-07T16:46:20.799Z,1.93
2018-07-07T16:48:53.281Z,2.57
2018-07-07T16:51:23.198Z,1.90
2018-07-07T16:53:54.433Z,2.13
2018-07-07T16:56:23.507Z,2.93
2018-07-07T16:59:00.304Z,2.20
2018-07-07T17:01:30.219Z,2.03
2018-07-07T17:04:00.554Z,2.00
2018-07-07T17:06:31.410Z,1.90
2018-07-07T17:11:37.771Z,3.87
2018-07-07T17:14:06.640Z,2.13
2018-07-07T17:16:36.055Z,1.70
2018-07-07T17:19:14.278Z,3.33
2018-07-07T17:21:47.248Z,2.10
2018-07-07T17:24:17.157Z,3.30
2018-07-07T17:26:46.694Z,2.17
2018-07-07T17:29:17.052Z,1.90
2018-07-07T17:31:46.831Z,1.70
2018-07-07T17:34:17.540Z,2.57
2018-07-07T17:36:47.370Z,4.10
2018-07-07T17:39:20.700Z,2.83
2018-07-07T17:41:50.175Z,2.47
2018-07-07T17:44:21.469Z,1.77
2018-07-07T17:46:52.081Z,1.37
2018-07-07T17:49:25.852Z,1.70
2018-07-07T17:51:54.920Z,1.90
2018-07-07T17:54:28.339Z,1.90
2018-07-07T17:56:58.253Z,2.00
2018-07-07T17:59:33.171Z,2.87
2018-07-07T18:02:02.208Z,2.03
2018-07-07T18:04:32.554Z,2.20
2018-07-07T18:07:01.407Z,3.30
2018-07-07T18:09:33.633Z,3.13
2018-07-07T18:12:03.186Z,1.60
2018-07-07T18:14:39.638Z,1.57
2018-07-07T18:17:09.694Z,3.57
2018-07-07T18:19:39.961Z,2.40
2018-07-07T18:22:09.258Z,2.13
2018-07-07T18:24:45.775Z,1.63
2018-07-07T18:27:16.092Z,2.20
2018-07-07T18:29:45.584Z,2.63
2018-07-07T18:32:15.463Z,4.27
2018-07-07T18:34:51.501Z,1.93
2018-07-07T18:37:22.215Z,2.00
2018-07-07T18:39:52.866Z,3.13
2018-07-07T18:42:21.854Z,2.63
2018-07-07T18:44:54.625Z,6.57
2018-07-07T18:47:23.649Z,2.07
2018-07-07T18:49:59.796Z,2.30
2018-07-07T18:52:28.977Z,1.80
2018-07-07T18:55:00.140Z,3.47
2018-07-07T18:57:29.874Z,3.90
2018-07-07T19:00:01.537Z,2.43
2018-07-07T19:02:30.594Z,1.97
2018-07-07T19:05:07.077Z,4.47
2018-07-07T19:07:36.428Z,2.50
2018-07-07T19:10:09.085Z,3.17
2018-07-07T19:12:38.440Z,2.30
2018-07-07T19:15:21.195Z,1.83
2018-07-07T19:17:52.349Z,2.43
2018-07-07T19:20:26.748Z,2.00
2018-07-07T19:23:02.836Z,2.60
2018-07-07T19:25:38.559Z,2.50
2018-07-07T19:28:15.412Z,3.23
2018-07-07T19:30:44.709Z,1.40
2018-07-07T19:33:25.763Z,1.57
2018-07-07T19:36:00.407Z,1.93
2018-07-07T19:38:29.336Z,2.60
2018-07-07T19:40:58.205Z,2.70
2018-07-07T19:43:28.641Z,1.40
2018-07-07T19:45:57.715Z,2.23
2018-07-07T19:48:27.282Z,2.67
2018-07-07T19:50:58.322Z,2.03
2018-07-07T19:53:32.176Z,1.37
2018-07-07T19:56:02.677Z,1.73
2018-07-07T19:58:52.252Z,1.20
2018-07-07T20:01:21.766Z,3.30
2018-07-07T20:03:51.692Z,3.60
2018-07-07T20:06:22.744Z,3.03
2018-07-07T20:08:52.400Z,1.50
2018-07-07T20:11:22.785Z,2.97
2018-07-07T20:13:53.523Z,1.93
2018-07-07T20:16:42.675Z,1.77
2018-07-07T20:19:20.247Z,2.80
2018-07-07T20:21:59.352Z,1.70
2018-07-07T20:24:33.305Z,1.87
2018-07-07T20:27:10.878Z,4.10
2018-07-07T20:29:48.089Z,4.30
2018-07-07T20:32:22.676Z,2.13
2018-07-07T20:34:53.172Z,1.77
2018-07-07T20:37:23.845Z,1.77
2018-07-07T20:39:53.342Z,1.57
2018-07-07T20:42:22.478Z,2.47
2018-07-07T20:44:56.766Z,3.10
2018-07-07T20:47:26.509Z,1.87
2018-07-07T20:49:59.818Z,1.70
2018-07-07T20:52:32.736Z,1.50
2018-07-07T20:55:01.716Z,2.07
2018-07-07T20:57:31.731Z,1.23
2018-07-07T21:00:11.380Z,1.63
2018-07-07T21:02:40.553Z,1.30
2018-07-07T21:05:11.234Z,2.17
2018-07-07T21:07:43.524Z,3.50
2018-07-07T21:10:13.728Z,1.20
2018-07-07T21:12:43.749Z,6.07
2018-07-07T21:15:15.255Z,1.57
2018-07-07T21:17:44.699Z,2.40
2018-07-07T21:20:15.203Z,2.03
2018-07-07T21:22:48.713Z,3.03
2018-07-07T21:25:21.482Z,1.90
2018-07-07T21:27:51.589Z,2.90
2018-07-07T21:30:21.768Z,1.23
2018-07-07T21:32:53.954Z,1.63
2018-07-07T21:35:27.266Z,1.50
2018-07-07T21:37:58.645Z,1.30
2018-07-07T21:40:29.771Z,2.90
2018-07-07T21:43:01.546Z,1.10
2018-07-07T21:45:32.781Z,3.03
2018-07-07T21:48:02.780Z,2.67
2018-07-07T21:50:33.769Z,1.70
2018-07-07T21:53:09.177Z,1.77
2018-07-07T21:55:38.412Z,2.60
2018-07-07T21:58:13.324Z,1.47
2018-07-07T22:00:59.188Z,2.07
2018-07-07T22:03:42.430Z,1.83
2018-07-07T22:06:15.167Z,3.07
2018-07-07T22:08:45.188Z,3.67
2018-07-07T22:11:14.094Z,1.50
2018-07-07T22:13:44.172Z,3.07
2018-07-07T22:16:14.391Z,1.20
2018-07-07T22:18:45.095Z,1.87
2018-07-07T22:21:25.178Z,1.10
2018-07-07T22:23:54.603Z,3.63
2018-07-07T22:26:23.596Z,1.40
2018-07-07T22:28:53.699Z,2.13
2018-07-07T22:31:22.919Z,1.20
2018-07-07T22:33:57.968Z,4.37
2018-07-07T22:36:32.487Z,2.63
2018-07-07T22:39:02.681Z,3.33
2018-07-07T22:42:34.593Z,1.33
2018-07-07T22:45:06.655Z,2.97
2018-07-07T22:47:38.188Z,1.10
2018-07-07T22:50:10.365Z,2.80
2018-07-07T22:52:39.278Z,0.83
2018-07-07T22:55:08.705Z,1.50
2018-07-07T22:57:37.690Z,2.10
2018-07-07T23:00:08.391Z,0.93
2018-07-07T23:02:37.537Z,1.13
2018-07-07T23:05:14.214Z,1.10
2018-07-07T23:07:43.839Z,3.30
2018-07-07T23:10:14.624Z,2.70
2018-07-07T23:12:44.117Z,1.77
2018-07-07T23:15:16.988Z,2.83
2018-07-07T23:17:46.108Z,3.37
2018-07-07T23:20:18.927Z,3.07
2018-07-07T23:22:53.473Z,1.20
2018-07-07T23:25:24.220Z,1.17
2018-07-07T23:27:54.946Z,2.20
2018-07-07T23:30:24.217Z,2.80
2018-07-07T23:32:53.307Z,1.07
2018-07-07T23:35:25.685Z,2.50
2018-07-07T23:37:54.750Z,1.27
2018-07-07T23:40:31.378Z,1.10
2018-07-07T23:43:01.147Z,2.40
2018-07-07T23:45:30.237Z,1.47
2018-07-07T23:47:59.498Z,3.00
2018-07-07T23:50:36.387Z,0.70
2018-07-07T23:53:06.249Z,2.23
2018-07-07T23:55:36.326Z,1.63
2018-07-07T23:58:05.659Z,3.53
